Time;durP1;ratioP1;P1;durP2;ratioP2;P2;SDS_P1;SDS_P2;PMS_P1;PMS_P2;Temp;Humidity;BMP_temperature;BMP_pressure;BME280_temperature;BME280_humidity;BME280_pressure;Samples;Min_cycle;Max_cycle;Signal;HPM_P1;HPM_P2
2023/06/01 00:00:44;;;;;;;10.90;5.83;;;;;;;;;;5031193;28;20472;-79
2023/06/01 00:03:10;;;;;;;13.57;7.10;;;;;;;;;;5026877;28;20897;-79
2023/06/01 00:05:36;;;;;;;12.10;6.20;;;;;;;;;;5032471;28;20989;-79
2023/06/01 00:08:04;;;;;;;17.87;6.73;;;;;;;;;;5032347;28;20495;-79
2023/06/01 00:10:30;;;;;;;15.57;6.30;;;;;;;;;;5030536;28;20530;-79
2023/06/01 00:12:58;;;;;;;10.70;6.20;;;;;;;;;;5030106;28;20444;-79
2023/06/01 00:15:25;;;;;;;13.43;5.87;;;;;;;;;;5012424;28;20555;-79
2023/06/01 00:17:52;;;;;;;15.90;6.33;;;;;;;;;;5027753;28;20843;-79
2023/06/01 00:20:18;;;;;;;18.70;7.73;;;;;;;;;;5030093;28;20539;-79
2023/06/01 00:22:46;;;;;;;9.23;6.00;;;;;;;;;;5033795;28;20448;-79
2023/06/01 00:25:12;;;;;;;10.20;6.87;;;;;;;;;;5031980;28;21189;-79
2023/06/01 00:27:39;;;;;;;15.10;6.10;;;;;;;;;;5014945;28;20465;-79
2023/06/01 00:30:08;;;;;;;12.50;6.57;;;;;;;;;;5032609;28;20445;-79
2023/06/01 00:32:36;;;;;;;14.17;6.07;;;;;;;;;;5031564;28;20488;-79
2023/06/01 00:35:02;;;;;;;11.20;6.20;;;;;;;;;;5032666;28;20480;-80
2023/06/01 00:37:29;;;;;;;8.37;5.60;;;;;;;;;;5032646;28;20473;-79
2023/06/01 00:39:56;;;;;;;9.20;6.27;;;;;;;;;;5011581;28;20506;-79
2023/06/01 00:42:22;;;;;;;13.23;5.97;;;;;;;;;;5013296;28;20487;-79
2023/06/01 00:44:48;;;;;;;16.70;5.90;;;;;;;;;;5031330;28;20931;-79
2023/06/01 00:47:16;;;;;;;15.07;6.83;;;;;;;;;;5030969;28;20552;-79
2023/06/01 00:49:43;;;;;;;13.60;7.43;;;;;;;;;;5030418;28;20463;-79
2023/06/01 00:52:10;;;;;;;12.80;7.93;;;;;;;;;;5027219;28;20979;-79
2023/06/01 00:54:36;;;;;;;16.57;7.20;;;;;;;;;;5032111;28;21005;-79
2023/06/01 00:57:02;;;;;;;14.63;7.63;;;;;;;;;;5029585;28;20479;-79
2023/06/01 00:59:29;;;;;;;16.53;7.50;;;;;;;;;;5013302;28;20518;-79
2023/06/01 01:01:55;;;;;;;11.20;7.07;;;;;;;;;;5029464;28;20501;-79
2023/06/01 01:04:25;;;;;;;12.47;6.17;;;;;;;;;;5030736;28;20465;-79
2023/06/01 01:06:56;;;;;;;13.50;5.87;;;;;;;;;;5029679;28;20480;-79
2023/06/01 01:09:24;;;;;;;14.67;6.20;;;;;;;;;;5029938;28;20469;-79
2023/06/01 01:11:53;;;;;;;13.00;6.00;;;;;;;;;;5033847;28;20472;-79
2023/06/01 01:14:22;;;;;;;10.50;6.10;;;;;;;;;;5033887;28;20471;-79
2023/06/01 01:16:53;;;;;;;11.80;6.73;;;;;;;;;;5014720;28;20487;-79
2023/06/01 01:19:31;;;;;;;11.10;6.60;;;;;;;;;;5017539;28;20504;-79
2023/06/01 01:22:07;;;;;;;8.43;5.77;;;;;;;;;;5032629;28;20479;-79
2023/06/01 01:24:40;;;;;;;12.53;6.00;;;;;;;;;;5035057;28;20527;-79
2023/06/01 01:27:13;;;;;;;12.50;6.87;;;;;;;;;;5034457;28;21005;-79
2023/06/01 01:29:42;;;;;;;14.07;6.70;;;;;;;;;;5035826;28;20862;-78
2023/06/01 01:32:09;;;;;;;18.63;7.17;;;;;;;;;;5024533;28;20495;-79
2023/06/01 01:34:36;;;;;;;10.53;7.60;;;;;;;;;;5035330;28;20547;-78
2023/06/01 01:37:02;;;;;;;10.03;6.47;;;;;;;;;;5032792;28;20480;-79
2023/06/01 01:39:30;;;;;;;19.10;6.33;;;;;;;;;;5035677;28;20460;-79
2023/06/01 01:41:56;;;;;;;13.47;6.30;;;;;;;;;;5034600;28;21011;-79
2023/06/01 01:44:23;;;;;;;9.87;5.70;;;;;;;;;;5035471;28;20472;-79
2023/06/01 01:46:58;;;;;;;8.50;4.20;;;;;;;;;;5034140;28;20481;-79
2023/06/01 01:49:26;;;;;;;12.73;5.77;;;;;;;;;;5033429;28;20989;-78
2023/06/01 01:51:57;;;;;;;9.87;4.37;;;;;;;;;;5014755;28;20469;-78
2023/06/01 01:54:25;;;;;;;9.83;5.33;;;;;;;;;;5030028;28;20449;-79
2023/06/01 01:56:54;;;;;;;8.87;4.20;;;;;;;;;;5034156;28;20483;-79
2023/06/01 01:59:20;;;;;;;28.73;6.13;;;;;;;;;;5035711;28;20609;-79
2023/06/01 02:01:47;;;;;;;10.50;5.07;;;;;;;;;;5028846;28;21022;-79
2023/06/01 02:04:15;;;;;;;7.97;4.43;;;;;;;;;;5031430;28;20463;-79
2023/06/01 02:06:42;;;;;;;13.87;4.70;;;;;;;;;;5032521;28;20487;-79
2023/06/01 02:09:08;;;;;;;7.47;4.30;;;;;;;;;;5035116;28;20456;-79
2023/06/01 02:11:35;;;;;;;5.40;4.20;;;;;;;;;;5017211;28;20477;-79
2023/06/01 02:14:01;;;;;;;6.77;3.63;;;;;;;;;;5034891;28;20825;-79
2023/06/01 02:16:28;;;;;;;10.13;4.00;;;;;;;;;;5033759;28;21002;-79
2023/06/01 02:18:57;;;;;;;9.37;4.30;;;;;;;;;;5031810;28;20487;-79
2023/06/01 02:21:25;;;;;;;13.63;7.23;;;;;;;;;;5034206;28;20485;-79
2023/06/01 02:23:51;;;;;;;11.00;5.50;;;;;;;;;;5013909;28;20457;-79
2023/06/01 02:26:18;;;;;;;15.60;5.53;;;;;;;;;;5034156;28;20479;-79
2023/06/01 02:28:44;;;;;;;14.37;6.00;;;;;;;;;;5014966;28;20461;-79
2023/06/01 02:31:10;;;;;;;12.23;4.87;;;;;;;;;;5032305;28;20464;-79
2023/06/01 02:33:38;;;;;;;9.73;6.00;;;;;;;;;;5034610;28;20974;-79
2023/06/01 02:36:06;;;;;;;13.17;6.03;;;;;;;;;;5031044;28;20524;-79
2023/06/01 02:38:33;;;;;;;16.00;7.47;;;;;;;;;;5030165;28;20469;-79
2023/06/01 02:41:00;;;;;;;11.60;6.30;;;;;;;;;;5014756;28;21058;-79
2023/06/01 02:43:28;;;;;;;12.20;5.80;;;;;;;;;;5031827;28;20452;-79
2023/06/01 02:45:55;;;;;;;12.83;7.03;;;;;;;;;;5033995;28;20847;-79
2023/06/01 02:48:21;;;;;;;8.87;6.90;;;;;;;;;;5032718;28;20898;-79
2023/06/01 02:50:49;;;;;;;15.73;6.70;;;;;;;;;;5034187;28;20468;-78
2023/06/01 02:53:15;;;;;;;18.30;6.53;;;;;;;;;;5034503;28;20449;-79
2023/06/01 02:55:43;;;;;;;14.20;7.20;;;;;;;;;;5030123;28;20850;-79
2023/06/01 02:58:15;;;;;;;13.87;5.80;;;;;;;;;;5034571;28;20453;-79
2023/06/01 03:00:43;;;;;;;13.30;6.20;;;;;;;;;;5032678;28;20553;-79
2023/06/01 03:03:09;;;;;;;18.63;6.87;;;;;;;;;;5030384;28;20498;-78
2023/06/01 03:05:36;;;;;;;10.70;5.87;;;;;;;;;;5032872;28;20461;-79
2023/06/01 03:08:03;;;;;;;20.33;7.37;;;;;;;;;;5033295;28;21027;-79
2023/06/01 03:10:29;;;;;;;22.00;6.73;;;;;;;;;;5031390;28;20448;-79
2023/06/01 03:12:57;;;;;;;8.83;6.40;;;;;;;;;;5033163;28;20472;-79
2023/06/01 03:15:23;;;;;;;12.70;5.80;;;;;;;;;;5032068;28;20986;-79
2023/06/01 03:17:50;;;;;;;13.73;5.67;;;;;;;;;;5031537;28;20476;-79
2023/06/01 03:20:16;;;;;;;10.30;5.53;;;;;;;;;;5032367;28;20506;-79
2023/06/01 03:22:43;;;;;;;13.30;5.20;;;;;;;;;;5015806;28;20467;-79
2023/06/01 03:25:12;;;;;;;9.57;5.33;;;;;;;;;;5030850;28;20464;-78
2023/06/01 03:27:38;;;;;;;14.67;6.50;;;;;;;;;;5033351;28;20469;-79
2023/06/01 03:30:09;;;;;;;9.23;5.47;;;;;;;;;;5031869;28;20460;-79
2023/06/01 03:32:36;;;;;;;14.73;6.40;;;;;;;;;;5032426;28;20480;-79
2023/06/01 03:35:02;;;;;;;13.10;6.17;;;;;;;;;;5030203;28;20449;-78
2023/06/01 03:37:28;;;;;;;15.83;5.60;;;;;;;;;;5030598;28;20469;-79
2023/06/01 03:39:55;;;;;;;12.23;5.50;;;;;;;;;;5034699;28;20452;-79
2023/06/01 03:42:21;;;;;;;14.83;5.63;;;;;;;;;;5032436;28;20487;-79
2023/06/01 03:44:47;;;;;;;13.93;6.03;;;;;;;;;;5033158;28;20460;-79
2023/06/01 03:47:15;;;;;;;12.67;5.00;;;;;;;;;;5032766;28;20484;-78
2023/06/01 03:49:41;;;;;;;20.87;7.33;;;;;;;;;;5030374;28;20448;-79
2023/06/01 03:52:08;;;;;;;12.70;6.37;;;;;;;;;;5032073;28;20850;-79
2023/06/01 03:54:34;;;;;;;13.17;5.60;;;;;;;;;;5031359;28;20491;-79
2023/06/01 03:57:01;;;;;;;14.17;6.50;;;;;;;;;;5028785;28;20861;-79
2023/06/01 03:59:28;;;;;;;12.73;6.40;;;;;;;;;;5015018;28;20448;-79
2023/06/01 04:01:55;;;;;;;14.37;6.40;;;;;;;;;;5030634;28;20469;-78
2023/06/01 04:04:25;;;;;;;14.33;5.80;;;;;;;;;;5030098;28;20539;-79
2023/06/01 04:06:51;;;;;;;10.93;6.27;;;;;;;;;;5031297;28;20505;-79
2023/06/01 04:09:18;;;;;;;18.90;6.10;;;;;;;;;;5029019;28;20453;-79
2023/06/01 04:11:45;;;;;;;13.13;6.60;;;;;;;;;;5024108;28;20527;-78
2023/06/01 04:14:11;;;;;;;11.70;5.47;;;;;;;;;;5028988;28;20467;-79
2023/06/01 04:16:37;;;;;;;9.93;5.90;;;;;;;;;;5032441;28;20480;-79
2023/06/01 04:19:04;;;;;;;9.50;5.77;;;;;;;;;;5032684;28;20441;-79
2023/06/01 04:21:32;;;;;;;8.30;5.40;;;;;;;;;;5031343;28;20522;-79
2023/06/01 04:23:58;;;;;;;20.63;7.53;;;;;;;;;;5030209;28;20452;-79
2023/06/01 04:26:27;;;;;;;14.23;6.10;;;;;;;;;;5022237;28;20466;-79
2023/06/01 04:28:56;;;;;;;8.93;5.07;;;;;;;;;;5027574;28;20492;-80
2023/06/01 04:31:23;;;;;;;8.70;5.30;;;;;;;;;;5031290;28;20567;-79
2023/06/01 04:33:52;;;;;;;10.00;7.07;;;;;;;;;;5030196;28;20444;-79
2023/06/01 04:36:20;;;;;;;13.87;6.20;;;;;;;;;;5028960;28;21020;-78
2023/06/01 04:38:51;;;;;;;23.03;7.80;;;;;;;;;;5032571;28;20461;-79
2023/06/01 04:41:20;;;;;;;10.40;5.90;;;;;;;;;;5031782;28;20563;-79
2023/06/01 04:43:51;;;;;;;15.37;6.03;;;;;;;;;;5030174;28;20841;-79
2023/06/01 04:46:18;;;;;;;9.30;6.13;;;;;;;;;;5027815;28;20468;-79
2023/06/01 04:48:45;;;;;;;12.67;6.57;;;;;;;;;;5032717;28;20473;-79
2023/06/01 04:51:12;;;;;;;18.10;6.57;;;;;;;;;;5024932;28;20469;-78
2023/06/01 04:53:38;;;;;;;15.80;6.10;;;;;;;;;;5030386;28;20452;-79
2023/06/01 04:56:06;;;;;;;20.10;5.87;;;;;;;;;;5031332;28;20477;-79
2023/06/01 04:58:33;;;;;;;11.60;5.67;;;;;;;;;;5032274;28;20464;-78
2023/06/01 05:01:00;;;;;;;12.00;6.53;;;;;;;;;;5033426;28;20482;-79
2023/06/01 05:03:26;;;;;;;9.87;5.57;;;;;;;;;;5026058;28;20453;-78
2023/06/01 05:05:52;;;;;;;15.70;5.50;;;;;;;;;;5032149;28;20472;-79
2023/06/01 05:08:19;;;;;;;12.77;5.40;;;;;;;;;;5032185;28;20985;-79
2023/06/01 05:10:45;;;;;;;19.43;7.27;;;;;;;;;;5030480;28;20470;-78
2023/06/01 05:13:13;;;;;;;12.23;5.40;;;;;;;;;;5027706;28;20453;-79
2023/06/01 05:15:39;;;;;;;15.30;5.33;;;;;;;;;;5025131;28;20497;-78
2023/06/01 05:18:06;;;;;;;10.20;6.07;;;;;;;;;;5031345;28;20515;-79
2023/06/01 05:20:32;;;;;;;12.50;6.17;;;;;;;;;;5031492;28;20463;-79
2023/06/01 05:22:58;;;;;;;12.37;6.03;;;;;;;;;;5028256;28;20939;-79
2023/06/01 05:25:25;;;;;;;11.33;5.60;;;;;;;;;;5030706;28;20452;-79
2023/06/01 05:27:51;;;;;;;13.63;5.73;;;;;;;;;;5030345;28;20461;-79
2023/06/01 05:30:19;;;;;;;8.40;5.47;;;;;;;;;;5029797;28;20475;-79
2023/06/01 05:32:45;;;;;;;9.87;5.57;;;;;;;;;;5030786;28;20480;-79
2023/06/01 05:35:11;;;;;;;10.00;5.00;;;;;;;;;;5022176;28;20943;-79
2023/06/01 05:37:39;;;;;;;10.53;5.90;;;;;;;;;;5023051;28;20493;-79
2023/06/01 05:40:07;;;;;;;6.50;5.10;;;;;;;;;;5020656;28;20460;-78
2023/06/01 05:42:34;;;;;;;13.40;6.30;;;;;;;;;;5030900;28;20837;-78
2023/06/01 05:45:00;;;;;;;10.13;5.53;;;;;;;;;;5026397;28;20460;-81
2023/06/01 05:47:28;;;;;;;10.40;5.43;;;;;;;;;;5027626;28;20472;-80
2023/06/01 05:49:55;;;;;;;9.83;5.33;;;;;;;;;;5029802;28;20455;-80
2023/06/01 05:52:21;;;;;;;9.23;4.73;;;;;;;;;;5029270;28;20500;-78
2023/06/01 05:54:48;;;;;;;9.63;4.73;;;;;;;;;;5030376;28;20455;-78
2023/06/01 05:57:15;;;;;;;8.27;4.37;;;;;;;;;;5031400;28;20479;-79
2023/06/01 05:59:42;;;;;;;6.50;4.20;;;;;;;;;;5028529;28;20958;-78
2023/06/01 06:02:08;;;;;;;5.97;4.43;;;;;;;;;;5031382;28;20476;-78
2023/06/01 06:04:36;;;;;;;7.07;4.27;;;;;;;;;;5033859;28;20448;-78
2023/06/01 06:07:02;;;;;;;13.13;5.00;;;;;;;;;;5001891;28;20535;-78
2023/06/01 06:09:29;;;;;;;9.73;4.73;;;;;;;;;;5034680;28;20445;-78
2023/06/01 06:11:55;;;;;;;8.60;5.40;;;;;;;;;;5035144;28;20473;-78
2023/06/01 06:14:21;;;;;;;11.23;4.80;;;;;;;;;;5034798;28;20452;-80
2023/06/01 06:16:51;;;;;;;6.67;3.53;;;;;;;;;;5034840;28;20477;-78
2023/06/01 06:19:17;;;;;;;15.23;5.00;;;;;;;;;;5032010;28;20441;-81
2023/06/01 06:21:45;;;;;;;11.50;4.93;;;;;;;;;;5028860;28;20476;-80
2023/06/01 06:24:12;;;;;;;12.80;3.93;;;;;;;;;;5032806;28;20440;-79
2023/06/01 06:26:38;;;;;;;5.67;3.90;;;;;;;;;;5023529;28;20481;-80
2023/06/01 06:29:04;;;;;;;15.90;4.97;;;;;;;;;;5033558;28;20436;-79
2023/06/01 06:31:31;;;;;;;12.60;5.70;;;;;;;;;;5029087;28;21029;-80
2023/06/01 06:33:57;;;;;;;9.20;4.40;;;;;;;;;;5036843;28;20449;-79
2023/06/01 06:36:24;;;;;;;8.10;4.20;;;;;;;;;;5033988;28;20480;-79
2023/06/01 06:38:51;;;;;;;7.57;4.30;;;;;;;;;;5031001;28;20929;-79
2023/06/01 06:41:18;;;;;;;9.83;4.87;;;;;;;;;;5005280;28;20486;-79
2023/06/01 06:43:44;;;;;;;11.00;4.47;;;;;;;;;;5034781;28;20943;-79
2023/06/01 06:46:10;;;;;;;7.57;3.80;;;;;;;;;;5033312;28;20476;-79
2023/06/01 06:48:36;;;;;;;7.73;4.50;;;;;;;;;;5034248;28;20465;-79
2023/06/01 06:51:03;;;;;;;9.60;4.53;;;;;;;;;;5012786;28;20461;-79
2023/06/01 06:53:30;;;;;;;8.13;4.10;;;;;;;;;;5028834;28;20461;-79
2023/06/01 06:55:58;;;;;;;5.73;4.37;;;;;;;;;;5030447;28;20480;-79
2023/06/01 06:58:24;;;;;;;9.13;4.27;;;;;;;;;;5032343;28;20496;-79
2023/06/01 07:00:50;;;;;;;7.33;4.27;;;;;;;;;;5032542;28;20568;-79
2023/06/01 07:03:17;;;;;;;16.87;5.80;;;;;;;;;;5030862;28;20452;-80
2023/06/01 07:05:45;;;;;;;6.73;4.27;;;;;;;;;;5030106;28;20468;-79
2023/06/01 07:08:12;;;;;;;9.33;5.40;;;;;;;;;;5032135;28;20488;-79
2023/06/01 07:10:38;;;;;;;9.73;4.80;;;;;;;;;;5032800;28;20503;-79
2023/06/01 07:13:06;;;;;;;6.43;4.80;;;;;;;;;;5031498;28;20447;-79
2023/06/01 07:15:33;;;;;;;8.60;4.60;;;;;;;;;;5033154;28;20984;-79
2023/06/01 07:18:00;;;;;;;11.10;5.70;;;;;;;;;;5028184;28;20488;-79
2023/06/01 07:20:26;;;;;;;9.93;5.43;;;;;;;;;;5025136;28;20448;-79
2023/06/01 07:22:52;;;;;;;11.23;5.40;;;;;;;;;;5029457;28;20444;-79
2023/06/01 07:25:19;;;;;;;9.30;4.70;;;;;;;;;;5028810;28;20441;-79
2023/06/01 07:27:48;;;;;;;8.93;4.93;;;;;;;;;;5030496;28;20468;-79
2023/06/01 07:30:16;;;;;;;10.20;6.20;;;;;;;;;;5031144;28;20498;-79
2023/06/01 07:32:42;;;;;;;13.60;5.90;;;;;;;;;;5027622;28;20900;-79
2023/06/01 07:35:09;;;;;;;7.97;4.97;;;;;;;;;;5032016;28;20452;-79
2023/06/01 07:37:37;;;;;;;10.27;5.90;;;;;;;;;;5033403;28;21273;-79
2023/06/01 07:40:05;;;;;;;9.10;4.70;;;;;;;;;;5033201;28;20447;-79
2023/06/01 07:42:31;;;;;;;9.60;4.57;;;;;;;;;;5023506;28;20475;-79
2023/06/01 07:44:58;;;;;;;9.00;5.57;;;;;;;;;;5031610;28;20449;-79
2023/06/01 07:47:26;;;;;;;8.73;4.50;;;;;;;;;;5027766;28;20473;-79
2023/06/01 07:49:52;;;;;;;7.93;5.30;;;;;;;;;;5033366;28;20445;-79
2023/06/01 07:52:19;;;;;;;10.73;5.20;;;;;;;;;;5014288;28;20484;-79
2023/06/01 07:54:45;;;;;;;12.00;4.90;;;;;;;;;;5032071;28;20445;-79
2023/06/01 07:57:11;;;;;;;9.47;4.93;;;;;;;;;;5027369;28;20473;-79
2023/06/01 07:59:38;;;;;;;9.07;4.90;;;;;;;;;;5029299;28;20448;-79
2023/06/01 08:02:05;;;;;;;12.57;5.40;;;;;;;;;;5030873;28;21017;-79
2023/06/01 08:04:33;;;;;;;11.97;4.67;;;;;;;;;;5033000;28;20440;-79
2023/06/01 08:07:02;;;;;;;8.00;5.17;;;;;;;;;;5029434;28;20546;-79
2023/06/01 08:09:29;;;;;;;10.40;4.70;;;;;;;;;;5030051;28;20459;-79
2023/06/01 08:11:56;;;;;;;10.50;4.60;;;;;;;;;;5033133;28;20470;-78
2023/06/01 08:14:22;;;;;;;11.13;5.23;;;;;;;;;;5031293;28;20436;-79
2023/06/01 08:16:48;;;;;;;12.97;6.00;;;;;;;;;;5032194;28;20471;-79
2023/06/01 08:19:15;;;;;;;13.57;4.60;;;;;;;;;;5033224;28;20441;-79
2023/06/01 08:21:43;;;;;;;8.30;4.50;;;;;;;;;;5027635;28;20472;-79
2023/06/01 08:24:10;;;;;;;8.63;3.90;;;;;;;;;;5032914;28;20503;-79
2023/06/01 08:26:38;;;;;;;10.80;4.17;;;;;;;;;;5029080;28;20470;-79
2023/06/01 08:29:05;;;;;;;7.47;5.10;;;;;;;;;;5033401;28;20444;-79
2023/06/01 08:31:32;;;;;;;8.40;4.57;;;;;;;;;;5009076;28;20837;-79
2023/06/01 08:33:58;;;;;;;11.30;4.50;;;;;;;;;;5031956;28;20448;-79
2023/06/01 08:36:25;;;;;;;12.53;5.43;;;;;;;;;;5031714;28;20472;-79
2023/06/01 08:38:55;;;;;;;4.57;3.70;;;;;;;;;;5014861;28;20492;-79
2023/06/01 08:41:25;;;;;;;7.70;3.80;;;;;;;;;;5031129;28;20468;-79
2023/06/01 08:43:55;;;;;;;6.60;4.07;;;;;;;;;;5030730;28;20450;-79
2023/06/01 08:46:23;;;;;;;9.20;4.30;;;;;;;;;;5032012;28;20538;-79
2023/06/01 08:48:50;;;;;;;6.77;4.50;;;;;;;;;;5030838;28;20461;-79
2023/06/01 08:51:18;;;;;;;5.03;3.50;;;;;;;;;;5030195;28;20523;-79
2023/06/01 08:53:45;;;;;;;8.30;3.90;;;;;;;;;;5025565;28;20451;-79
2023/06/01 08:56:12;;;;;;;5.30;3.27;;;;;;;;;;5027789;28;20480;-79
2023/06/01 08:58:40;;;;;;;8.97;3.13;;;;;;;;;;5028525;28;20520;-79
2023/06/01 09:01:07;;;;;;;6.50;3.03;;;;;;;;;;5026559;28;20475;-79
2023/06/01 09:03:33;;;;;;;8.07;3.83;;;;;;;;;;5034326;28;20440;-79
2023/06/01 09:06:00;;;;;;;5.93;3.00;;;;;;;;;;5031653;28;20473;-79
2023/06/01 09:08:26;;;;;;;4.17;3.30;;;;;;;;;;5031577;28;20460;-79
2023/06/01 09:10:53;;;;;;;12.70;3.10;;;;;;;;;;5029764;28;21006;-78
2023/06/01 09:13:33;;;;;;;6.00;3.30;;;;;;;;;;5031369;28;20460;-79
2023/06/01 09:15:59;;;;;;;9.00;3.27;;;;;;;;;;5031361;28;20468;-78
2023/06/01 09:18:25;;;;;;;7.20;3.50;;;;;;;;;;5031723;28;20480;-79
2023/06/01 09:20:56;;;;;;;7.67;2.37;;;;;;;;;;5029160;28;20854;-78
2023/06/01 09:23:27;;;;;;;7.00;3.03;;;;;;;;;;5030168;28;20443;-78
2023/06/01 09:26:15;;;;;;;4.10;3.00;;;;;;;;;;5029437;28;20479;-78
2023/06/01 09:28:58;;;;;;;6.37;3.27;;;;;;;;;;5024211;28;20473;-78
2023/06/01 09:31:39;;;;;;;4.90;2.70;;;;;;;;;;5029394;28;20473;-78
2023/06/01 09:34:06;;;;;;;6.17;3.23;;;;;;;;;;5033764;28;20441;-78
2023/06/01 09:36:33;;;;;;;10.43;2.97;;;;;;;;;;5035151;28;20610;-79
2023/06/01 09:39:03;;;;;;;6.90;3.27;;;;;;;;;;5036166;28;20875;-78
2023/06/01 09:41:44;;;;;;;4.00;3.10;;;;;;;;;;5029974;28;20497;-79
2023/06/01 09:44:12;;;;;;;12.43;3.67;;;;;;;;;;5030209;28;20935;-78
2023/06/01 09:46:46;;;;;;;8.80;3.53;;;;;;;;;;5015737;28;20495;-79
2023/06/01 09:49:18;;;;;;;11.40;3.53;;;;;;;;;;5028107;28;20491;-78
2023/06/01 09:51:45;;;;;;;13.13;4.10;;;;;;;;;;5034381;28;20852;-78
2023/06/01 09:54:11;;;;;;;9.83;5.33;;;;;;;;;;5035083;28;20523;-78
2023/06/01 09:56:44;;;;;;;9.77;4.00;;;;;;;;;;5032627;28;20473;-79
2023/06/01 09:59:12;;;;;;;5.83;3.30;;;;;;;;;;5035002;28;20481;-78
2023/06/01 10:01:40;;;;;;;6.40;5.03;;;;;;;;;;5027717;28;20475;-79
2023/06/01 10:04:07;;;;;;;9.97;5.20;;;;;;;;;;5033991;28;20454;-78
2023/06/01 10:06:36;;;;;;;17.67;4.27;;;;;;;;;;5014557;28;20559;-78
2023/06/01 10:09:04;;;;;;;13.63;4.57;;;;;;;;;;5023203;28;20543;-79
2023/06/01 10:11:31;;;;;;;9.63;4.40;;;;;;;;;;5034847;28;20472;-78
2023/06/01 10:13:58;;;;;;;12.87;4.27;;;;;;;;;;5035288;28;20440;-78
2023/06/01 10:16:26;;;;;;;11.43;4.97;;;;;;;;;;5030513;28;20473;-79
2023/06/01 10:18:53;;;;;;;8.17;3.60;;;;;;;;;;5032646;28;20492;-78
2023/06/01 10:21:19;;;;;;;8.07;4.30;;;;;;;;;;5032355;28;20480;-79
2023/06/01 10:23:45;;;;;;;11.37;4.80;;;;;;;;;;5015814;28;20452;-78
2023/06/01 10:26:15;;;;;;;11.30;4.43;;;;;;;;;;5034366;28;20468;-78
2023/06/01 10:28:42;;;;;;;16.13;4.13;;;;;;;;;;5031979;28;20457;-78
2023/06/01 10:31:23;;;;;;;13.57;5.23;;;;;;;;;;5032385;28;20474;-78
2023/06/01 10:33:55;;;;;;;11.57;4.33;;;;;;;;;;5031780;28;20444;-78
2023/06/01 10:36:21;;;;;;;14.17;4.30;;;;;;;;;;5033238;28;21092;-78
2023/06/01 10:38:48;;;;;;;8.23;4.30;;;;;;;;;;5034199;28;20485;-78
2023/06/01 10:41:30;;;;;;;8.77;4.17;;;;;;;;;;5031043;28;20480;-78
2023/06/01 10:43:57;;;;;;;10.20;4.60;;;;;;;;;;5028411;28;20927;-78
2023/06/01 10:46:36;;;;;;;10.10;3.70;;;;;;;;;;5033382;28;21116;-78
2023/06/01 10:49:04;;;;;;;15.90;4.83;;;;;;;;;;5013885;28;20444;-78
2023/06/01 10:51:31;;;;;;;12.47;4.00;;;;;;;;;;5032600;28;21008;-78
2023/06/01 10:54:20;;;;;;;6.60;3.90;;;;;;;;;;5030513;28;20481;-78
2023/06/01 10:56:47;;;;;;;9.43;4.50;;;;;;;;;;5033191;28;20485;-78
2023/06/01 10:59:13;;;;;;;10.47;4.53;;;;;;;;;;5031409;28;20876;-78
2023/06/01 11:01:40;;;;;;;13.17;4.90;;;;;;;;;;5033103;28;20488;-78
2023/06/01 11:04:08;;;;;;;12.97;5.53;;;;;;;;;;5031759;28;20456;-78
2023/06/01 11:06:37;;;;;;;11.30;5.30;;;;;;;;;;5027498;28;21017;-79
2023/06/01 11:09:06;;;;;;;12.10;4.90;;;;;;;;;;5034148;28;20970;-78
2023/06/01 11:11:51;;;;;;;7.97;5.37;;;;;;;;;;5032917;28;20461;-78
2023/06/01 11:14:19;;;;;;;15.27;5.20;;;;;;;;;;5034569;28;20420;-78
2023/06/01 11:16:45;;;;;;;10.07;5.30;;;;;;;;;;5035288;28;20469;-78
2023/06/01 11:19:17;;;;;;;13.07;5.60;;;;;;;;;;5033303;28;20483;-78
2023/06/01 11:21:44;;;;;;;11.40;5.10;;;;;;;;;;5025767;28;20473;-78
2023/06/01 11:24:11;;;;;;;10.90;5.20;;;;;;;;;;5033695;28;20426;-78
2023/06/01 11:26:42;;;;;;;10.17;4.37;;;;;;;;;;5027519;28;20444;-79
2023/06/01 11:29:10;;;;;;;8.63;4.30;;;;;;;;;;5019925;28;20448;-78
2023/06/01 11:31:38;;;;;;;11.20;4.57;;;;;;;;;;5030750;28;20477;-79
2023/06/01 11:34:05;;;;;;;7.73;4.77;;;;;;;;;;5030181;28;20454;-78
2023/06/01 11:36:36;;;;;;;8.97;4.47;;;;;;;;;;5029437;28;20847;-78
2023/06/01 11:39:06;;;;;;;7.50;4.37;;;;;;;;;;5029586;28;20477;-78
2023/06/01 11:41:33;;;;;;;14.50;4.40;;;;;;;;;;5030318;28;20879;-79
2023/06/01 11:44:00;;;;;;;6.73;4.97;;;;;;;;;;5027916;28;20453;-79
2023/06/01 11:46:28;;;;;;;10.20;6.27;;;;;;;;;;5030190;28;20471;-79
2023/06/01 11:49:01;;;;;;;11.90;5.90;;;;;;;;;;5032718;28;20473;-79
2023/06/01 11:51:28;;;;;;;7.40;5.70;;;;;;;;;;5028347;28;21082;-79
2023/06/01 11:53:56;;;;;;;12.40;6.57;;;;;;;;;;5033774;28;20451;-79
2023/06/01 11:56:29;;;;;;;9.87;6.03;;;;;;;;;;5030976;28;20559;-78
2023/06/01 11:58:57;;;;;;;14.50;6.83;;;;;;;;;;5032693;28;20523;-79
2023/06/01 12:01:24;;;;;;;15.27;5.80;;;;;;;;;;5009656;28;20476;-78
2023/06/01 12:03:51;;;;;;;11.13;5.47;;;;;;;;;;5032120;28;21025;-78
2023/06/01 12:06:19;;;;;;;9.80;5.90;;;;;;;;;;5028115;28;20842;-79
2023/06/01 12:08:47;;;;;;;13.00;6.17;;;;;;;;;;5032595;28;20476;-79
2023/06/01 12:11:16;;;;;;;9.40;5.47;;;;;;;;;;5033838;28;20534;-78
2023/06/01 12:13:42;;;;;;;7.50;5.33;;;;;;;;;;5028527;28;20475;-78
2023/06/01 12:16:09;;;;;;;9.10;4.97;;;;;;;;;;5032108;28;20849;-78
2023/06/01 12:18:35;;;;;;;10.00;5.67;;;;;;;;;;5014503;28;20484;-78
2023/06/01 12:21:09;;;;;;;11.50;6.33;;;;;;;;;;5011795;28;20476;-78
2023/06/01 12:23:36;;;;;;;11.80;5.70;;;;;;;;;;5013561;28;20448;-79
2023/06/01 12:26:06;;;;;;;8.40;4.90;;;;;;;;;;5028161;28;20468;-78
2023/06/01 12:31:27;;;;;;;8.50;5.57;;;;;;;;;;5119078;27;20673;-79
2023/06/01 12:33:55;;;;;;;12.50;5.80;;;;;;;;;;5069585;28;20825;-78
2023/06/01 12:36:32;;;;;;;6.97;5.17;;;;;;;;;;5092788;28;20515;-79
2023/06/01 12:38:58;;;;;;;15.33;5.20;;;;;;;;;;5099719;28;20489;-79
2023/06/01 12:41:25;;;;;;;11.20;5.77;;;;;;;;;;5091541;28;20528;-78
2023/06/01 12:43:52;;;;;;;6.67;4.70;;;;;;;;;;5092832;28;20420;-78
2023/06/01 12:46:19;;;;;;;8.83;4.40;;;;;;;;;;5095231;27;20485;-78
2023/06/01 12:48:47;;;;;;;9.50;5.20;;;;;;;;;;5091250;28;20988;-79
2023/06/01 12:51:16;;;;;;;6.73;4.90;;;;;;;;;;5087642;28;20506;-79
2023/06/01 12:53:43;;;;;;;6.00;4.43;;;;;;;;;;5092285;28;20820;-78
2023/06/01 12:56:10;;;;;;;8.93;4.40;;;;;;;;;;5094111;28;20520;-79
2023/06/01 12:58:36;;;;;;;7.83;4.33;;;;;;;;;;5092794;28;20441;-79
2023/06/01 13:01:03;;;;;;;11.70;4.93;;;;;;;;;;5091731;28;20441;-78
2023/06/01 13:03:30;;;;;;;11.47;5.33;;;;;;;;;;5095556;28;20439;-79
2023/06/01 13:05:59;;;;;;;10.07;4.07;;;;;;;;;;5094412;28;20545;-78
2023/06/01 13:08:26;;;;;;;12.27;4.27;;;;;;;;;;5094288;28;21017;-78
2023/06/01 13:10:53;;;;;;;8.83;5.70;;;;;;;;;;5092795;28;20441;-79
2023/06/01 13:13:19;;;;;;;12.93;4.40;;;;;;;;;;5093296;28;20450;-78
2023/06/01 13:15:47;;;;;;;11.60;4.13;;;;;;;;;;5102560;28;20469;-79
2023/06/01 13:18:14;;;;;;;10.37;4.00;;;;;;;;;;5092440;28;20813;-79
2023/06/01 13:20:40;;;;;;;7.63;4.10;;;;;;;;;;5088303;28;20997;-78
2023/06/01 13:23:08;;;;;;;9.40;4.60;;;;;;;;;;5093712;28;20425;-79
2023/06/01 13:25:34;;;;;;;8.77;4.60;;;;;;;;;;5091900;27;20466;-78
2023/06/01 13:28:01;;;;;;;5.67;3.60;;;;;;;;;;5090595;28;20482;-79
2023/06/01 13:30:28;;;;;;;10.67;3.90;;;;;;;;;;5093133;28;20482;-78
2023/06/01 13:32:55;;;;;;;5.70;3.50;;;;;;;;;;5086069;28;20443;-78
2023/06/01 13:35:21;;;;;;;10.00;4.80;;;;;;;;;;5092930;28;20453;-79
2023/06/01 13:37:48;;;;;;;7.60;3.50;;;;;;;;;;5094547;28;20481;-79
2023/06/01 13:40:18;;;;;;;10.90;3.90;;;;;;;;;;5088006;28;20421;-79
2023/06/01 13:42:44;;;;;;;13.07;3.80;;;;;;;;;;5076351;28;20534;-78
2023/06/01 13:45:11;;;;;;;9.90;3.40;;;;;;;;;;5068072;28;20457;-79
2023/06/01 13:47:38;;;;;;;8.07;4.00;;;;;;;;;;5073308;28;20512;-79
2023/06/01 13:50:07;;;;;;;10.23;4.33;;;;;;;;;;5073355;28;20842;-79
2023/06/01 13:52:35;;;;;;;9.70;3.90;;;;;;;;;;5079907;28;20441;-79
2023/06/01 13:55:01;;;;;;;8.47;3.90;;;;;;;;;;5082519;28;20943;-79
2023/06/01 13:57:29;;;;;;;7.13;3.33;;;;;;;;;;5079828;28;20478;-79
2023/06/01 13:59:55;;;;;;;8.90;3.60;;;;;;;;;;5075102;28;20442;-78
2023/06/01 14:02:22;;;;;;;4.27;3.20;;;;;;;;;;5080346;28;20472;-79
2023/06/01 14:04:48;;;;;;;8.10;3.70;;;;;;;;;;5075845;28;20459;-79
2023/06/01 14:07:15;;;;;;;6.17;3.03;;;;;;;;;;5081239;28;20454;-79
2023/06/01 14:09:41;;;;;;;4.97;3.07;;;;;;;;;;5076004;28;20453;-79
2023/06/01 14:12:08;;;;;;;6.70;3.27;;;;;;;;;;5078272;28;20452;-79
2023/06/01 14:14:36;;;;;;;19.83;5.97;;;;;;;;;;5085143;28;20450;-79
2023/06/01 14:17:02;;;;;;;24.90;6.20;;;;;;;;;;5083366;28;20465;-78
2023/06/01 14:19:28;;;;;;;18.93;5.10;;;;;;;;;;5083912;28;20914;-79
2023/06/01 14:21:57;;;;;;;18.40;4.60;;;;;;;;;;5076079;28;20467;-79
2023/06/01 14:24:24;;;;;;;10.73;2.97;;;;;;;;;;5074536;28;20422;-79
2023/06/01 14:26:50;;;;;;;5.30;2.23;;;;;;;;;;5076438;28;20441;-79
2023/06/01 14:29:17;;;;;;;3.83;2.30;;;;;;;;;;5078835;28;20413;-78
2023/06/01 14:31:45;;;;;;;8.13;2.60;;;;;;;;;;5081424;28;20489;-79
2023/06/01 14:34:11;;;;;;;2.30;1.70;;;;;;;;;;5084694;28;20413;-78
2023/06/01 14:36:38;;;;;;;6.30;3.30;;;;;;;;;;5074630;28;20481;-79
2023/06/01 14:39:04;;;;;;;4.97;2.33;;;;;;;;;;5081770;28;20413;-79
2023/06/01 14:41:32;;;;;;;4.47;3.00;;;;;;;;;;5076720;28;20441;-79